sensor_id;sensor_type;location;lat;lon;timestamp;P1;durP1;ratioP1;P2;durP2;ratioP2
982;SDS011;480;48.124;11.578;2022-09-03T00:00:03;2.13;;;2.03;;
982;SDS011;480;48.124;11.578;2022-09-03T00:02:37;2.20;;;2.00;;
982;SDS011;480;48.124;11.578;2022-09-03T00:05:11;2.17;;;2.07;;
982;SDS011;480;48.124;11.578;2022-09-03T00:07:45;2.80;;;2.30;;
982;SDS011;480;48.124;11.578;2022-09-03T00:10:19;2.27;;;2.07;;
982;SDS011;480;48.124;11.578;2022-09-03T00:12:50;2.83;;;2.50;;
982;SDS011;480;48.124;11.578;2022-09-03T00:15:21;2.27;;;2.17;;
982;SDS011;480;48.124;11.578;2022-09-03T00:17:50;2.23;;;2.13;;
982;SDS011;480;48.124;11.578;2022-09-03T00:20:23;2.30;;;2.20;;
982;SDS011;480;48.124;11.578;2022-09-03T00:22:56;2.20;;;2.10;;
982;SDS011;480;48.124;11.578;2022-09-03T00:25:28;2.50;;;2.30;;
982;SDS011;480;48.124;11.578;2022-09-03T00:28:00;3.03;;;2.83;;
982;SDS011;480;48.124;11.578;2022-09-03T00:30:31;2.50;;;2.30;;
982;SDS011;480;48.124;11.578;2022-09-03T00:33:00;5.63;;;3.47;;
982;SDS011;480;48.124;11.578;2022-09-03T00:35:33;2.73;;;2.53;;
982;SDS011;480;48.124;11.578;2022-09-03T00:38:05;4.03;;;2.00;;
982;SDS011;480;48.124;11.578;2022-09-03T00:40:37;2.80;;;2.60;;
982;SDS011;480;48.124;11.578;2022-09-03T00:43:20;3.07;;;2.87;;
982;SDS011;480;48.124;11.578;2022-09-03T00:45:58;3.13;;;2.80;;
982;SDS011;480;48.124;11.578;2022-09-03T00:48:35;3.00;;;2.80;;
982;SDS011;480;48.124;11.578;2022-09-03T00:51:17;2.57;;;2.37;;
982;SDS011;480;48.124;11.578;2022-09-03T00:53:55;3.67;;;2.37;;
982;SDS011;480;48.124;11.578;2022-09-03T00:56:31;2.97;;;2.77;;
982;SDS011;480;48.124;11.578;2022-09-03T00:59:12;2.70;;;2.30;;
982;SDS011;480;48.124;11.578;2022-09-03T01:01:49;2.53;;;2.43;;
982;SDS011;480;48.124;11.578;2022-09-03T01:04:33;3.03;;;2.73;;
982;SDS011;480;48.124;11.578;2022-09-03T01:07:10;4.13;;;3.40;;
982;SDS011;480;48.124;11.578;2022-09-03T01:09:47;7.53;;;2.23;;
982;SDS011;480;48.124;11.578;2022-09-03T01:12:25;3.27;;;2.97;;
982;SDS011;480;48.124;11.578;2022-09-03T01:15:05;2.80;;;2.70;;
982;SDS011;480;48.124;11.578;2022-09-03T01:17:41;2.07;;;1.97;;
982;SDS011;480;48.124;11.578;2022-09-03T01:20:19;3.37;;;3.03;;
982;SDS011;480;48.124;11.578;2022-09-03T01:23:21;3.00;;;2.80;;
982;SDS011;480;48.124;11.578;2022-09-03T01:26:01;3.93;;;3.67;;
982;SDS011;480;48.124;11.578;2022-09-03T01:28:45;4.23;;;3.17;;
982;SDS011;480;48.124;11.578;2022-09-03T01:31:23;3.00;;;2.70;;
982;SDS011;480;48.124;11.578;2022-09-03T01:33:59;3.00;;;2.80;;
982;SDS011;480;48.124;11.578;2022-09-03T01:36:36;2.47;;;2.37;;
982;SDS011;480;48.124;11.578;2022-09-03T01:39:12;3.00;;;2.80;;
982;SDS011;480;48.124;11.578;2022-09-03T01:41:50;3.00;;;2.80;;
982;SDS011;480;48.124;11.578;2022-09-03T01:44:46;2.93;;;2.73;;
982;SDS011;480;48.124;11.578;2022-09-03T01:47:27;2.77;;;2.57;;
982;SDS011;480;48.124;11.578;2022-09-03T01:50:03;3.33;;;3.10;;
982;SDS011;480;48.124;11.578;2022-09-03T01:52:37;3.10;;;2.80;;
982;SDS011;480;48.124;11.578;2022-09-03T01:55:17;3.77;;;3.13;;
982;SDS011;480;48.124;11.578;2022-09-03T01:57:54;2.50;;;2.30;;
982;SDS011;480;48.124;11.578;2022-09-03T02:00:25;2.60;;;2.40;;
982;SDS011;480;48.124;11.578;2022-09-03T02:02:59;3.00;;;2.73;;
982;SDS011;480;48.124;11.578;2022-09-03T02:05:29;3.77;;;3.57;;
982;SDS011;480;48.124;11.578;2022-09-03T02:08:00;2.90;;;2.63;;
982;SDS011;480;48.124;11.578;2022-09-03T02:10:29;2.93;;;2.73;;
982;SDS011;480;48.124;11.578;2022-09-03T02:13:04;4.60;;;3.10;;
982;SDS011;480;48.124;11.578;2022-09-03T02:15:35;3.33;;;2.77;;
982;SDS011;480;48.124;11.578;2022-09-03T02:18:06;3.83;;;2.70;;
982;SDS011;480;48.124;11.578;2022-09-03T02:20:38;2.87;;;2.67;;
982;SDS011;480;48.124;11.578;2022-09-03T02:23:06;3.57;;;3.37;;
982;SDS011;480;48.124;11.578;2022-09-03T02:25:34;2.87;;;2.67;;
982;SDS011;480;48.124;11.578;2022-09-03T02:28:04;3.87;;;3.57;;
982;SDS011;480;48.124;11.578;2022-09-03T02:30:33;3.07;;;2.87;;
982;SDS011;480;48.124;11.578;2022-09-03T02:33:01;3.23;;;3.03;;
982;SDS011;480;48.124;11.578;2022-09-03T02:35:29;4.23;;;2.90;;
982;SDS011;480;48.124;11.578;2022-09-03T02:37:56;3.20;;;2.90;;
982;SDS011;480;48.124;11.578;2022-09-03T02:40:22;3.47;;;3.17;;
982;SDS011;480;48.124;11.578;2022-09-03T02:42:49;3.10;;;2.80;;
982;SDS011;480;48.124;11.578;2022-09-03T02:45:19;3.03;;;2.83;;
982;SDS011;480;48.124;11.578;2022-09-03T02:47:53;2.43;;;2.30;;
982;SDS011;480;48.124;11.578;2022-09-03T02:50:22;3.47;;;3.10;;
982;SDS011;480;48.124;11.578;2022-09-03T02:52:49;3.23;;;3.03;;
982;SDS011;480;48.124;11.578;2022-09-03T02:55:17;2.63;;;2.53;;
982;SDS011;480;48.124;11.578;2022-09-03T02:57:44;3.37;;;3.17;;
982;SDS011;480;48.124;11.578;2022-09-03T03:00:12;3.10;;;2.53;;
982;SDS011;480;48.124;11.578;2022-09-03T03:02:39;4.70;;;3.20;;
982;SDS011;480;48.124;11.578;2022-09-03T03:05:08;3.17;;;2.97;;
982;SDS011;480;48.124;11.578;2022-09-03T03:07:42;3.90;;;3.60;;
982;SDS011;480;48.124;11.578;2022-09-03T03:10:09;3.47;;;2.80;;
982;SDS011;480;48.124;11.578;2022-09-03T03:12:36;3.57;;;3.27;;
982;SDS011;480;48.124;11.578;2022-09-03T03:15:04;3.00;;;2.80;;
982;SDS011;480;48.124;11.578;2022-09-03T03:17:32;3.30;;;3.10;;
982;SDS011;480;48.124;11.578;2022-09-03T03:19:59;3.90;;;3.60;;
982;SDS011;480;48.124;11.578;2022-09-03T03:22:27;3.07;;;2.80;;
982;SDS011;480;48.124;11.578;2022-09-03T03:24:54;3.23;;;3.03;;
982;SDS011;480;48.124;11.578;2022-09-03T03:27:21;3.33;;;3.03;;
982;SDS011;480;48.124;11.578;2022-09-03T03:29:49;3.33;;;3.10;;
982;SDS011;480;48.124;11.578;2022-09-03T03:32:16;4.10;;;3.80;;
982;SDS011;480;48.124;11.578;2022-09-03T03:34:43;3.93;;;3.47;;
982;SDS011;480;48.124;11.578;2022-09-03T03:37:10;3.10;;;2.90;;
982;SDS011;480;48.124;11.578;2022-09-03T03:39:39;3.40;;;3.20;;
982;SDS011;480;48.124;11.578;2022-09-03T03:42:06;3.30;;;3.00;;
982;SDS011;480;48.124;11.578;2022-09-03T03:44:33;4.30;;;3.80;;
982;SDS011;480;48.124;11.578;2022-09-03T03:47:01;3.87;;;3.20;;
982;SDS011;480;48.124;11.578;2022-09-03T03:49:30;3.50;;;3.20;;
982;SDS011;480;48.124;11.578;2022-09-03T03:51:57;4.50;;;4.20;;
982;SDS011;480;48.124;11.578;2022-09-03T03:54:24;3.30;;;3.00;;
982;SDS011;480;48.124;11.578;2022-09-03T03:56:52;3.57;;;3.30;;
982;SDS011;480;48.124;11.578;2022-09-03T03:59:19;3.70;;;3.10;;
982;SDS011;480;48.124;11.578;2022-09-03T04:01:46;3.50;;;3.20;;
982;SDS011;480;48.124;11.578;2022-09-03T04:04:15;3.03;;;2.73;;
982;SDS011;480;48.124;11.578;2022-09-03T04:06:42;3.00;;;2.90;;
982;SDS011;480;48.124;11.578;2022-09-03T04:09:09;3.13;;;2.90;;
982;SDS011;480;48.124;11.578;2022-09-03T04:11:36;3.60;;;3.30;;
982;SDS011;480;48.124;11.578;2022-09-03T04:14:05;3.27;;;3.07;;
982;SDS011;480;48.124;11.578;2022-09-03T04:16:32;3.30;;;3.10;;
982;SDS011;480;48.124;11.578;2022-09-03T04:18:59;3.80;;;3.60;;
982;SDS011;480;48.124;11.578;2022-09-03T04:21:27;4.10;;;3.70;;
982;SDS011;480;48.124;11.578;2022-09-03T04:23:56;4.90;;;3.83;;
982;SDS011;480;48.124;11.578;2022-09-03T04:26:25;5.20;;;3.73;;
982;SDS011;480;48.124;11.578;2022-09-03T04:28:55;3.50;;;3.20;;
982;SDS011;480;48.124;11.578;2022-09-03T04:31:23;3.47;;;3.17;;
982;SDS011;480;48.124;11.578;2022-09-03T04:33:50;4.20;;;3.83;;
982;SDS011;480;48.124;11.578;2022-09-03T04:36:19;4.03;;;3.70;;
982;SDS011;480;48.124;11.578;2022-09-03T04:38:49;4.13;;;3.20;;
982;SDS011;480;48.124;11.578;2022-09-03T04:41:19;4.00;;;3.70;;
982;SDS011;480;48.124;11.578;2022-09-03T04:43:49;4.53;;;4.13;;
982;SDS011;480;48.124;11.578;2022-09-03T04:46:17;3.67;;;3.40;;
982;SDS011;480;48.124;11.578;2022-09-03T04:48:47;3.47;;;3.03;;
982;SDS011;480;48.124;11.578;2022-09-03T04:51:16;3.30;;;3.10;;
982;SDS011;480;48.124;11.578;2022-09-03T04:53:46;4.27;;;3.10;;
982;SDS011;480;48.124;11.578;2022-09-03T04:56:15;4.47;;;3.20;;
982;SDS011;480;48.124;11.578;2022-09-03T04:58:44;3.93;;;3.63;;
982;SDS011;480;48.124;11.578;2022-09-03T05:01:13;3.50;;;3.27;;
982;SDS011;480;48.124;11.578;2022-09-03T05:03:42;3.47;;;3.27;;
982;SDS011;480;48.124;11.578;2022-09-03T05:06:10;3.40;;;3.20;;
982;SDS011;480;48.124;11.578;2022-09-03T05:08:37;4.50;;;4.10;;
982;SDS011;480;48.124;11.578;2022-09-03T05:11:04;3.90;;;3.60;;
982;SDS011;480;48.124;11.578;2022-09-03T05:13:33;3.50;;;3.20;;
982;SDS011;480;48.124;11.578;2022-09-03T05:16:01;3.10;;;2.90;;
982;SDS011;480;48.124;11.578;2022-09-03T05:18:29;3.47;;;3.17;;
982;SDS011;480;48.124;11.578;2022-09-03T05:20:57;3.60;;;3.30;;
982;SDS011;480;48.124;11.578;2022-09-03T05:23:27;2.80;;;2.60;;
982;SDS011;480;48.124;11.578;2022-09-03T05:25:55;3.30;;;3.10;;
982;SDS011;480;48.124;11.578;2022-09-03T05:28:23;4.60;;;3.30;;
982;SDS011;480;48.124;11.578;2022-09-03T05:31:02;3.30;;;2.83;;
982;SDS011;480;48.124;11.578;2022-09-03T05:33:32;3.57;;;3.37;;
982;SDS011;480;48.124;11.578;2022-09-03T05:36:00;4.03;;;3.73;;
982;SDS011;480;48.124;11.578;2022-09-03T05:38:29;4.37;;;4.00;;
982;SDS011;480;48.124;11.578;2022-09-03T05:40:57;4.20;;;3.87;;
982;SDS011;480;48.124;11.578;2022-09-03T05:43:24;4.00;;;3.57;;
982;SDS011;480;48.124;11.578;2022-09-03T05:45:55;4.00;;;3.53;;
982;SDS011;480;48.124;11.578;2022-09-03T05:48:24;4.17;;;3.77;;
982;SDS011;480;48.124;11.578;2022-09-03T05:50:57;4.30;;;3.93;;
982;SDS011;480;48.124;11.578;2022-09-03T05:53:25;3.63;;;3.33;;
982;SDS011;480;48.124;11.578;2022-09-03T05:55:58;3.43;;;3.23;;
982;SDS011;480;48.124;11.578;2022-09-03T05:58:29;3.30;;;3.10;;
982;SDS011;480;48.124;11.578;2022-09-03T06:00:56;3.43;;;3.20;;
982;SDS011;480;48.124;11.578;2022-09-03T06:03:22;3.47;;;3.27;;
982;SDS011;480;48.124;11.578;2022-09-03T06:05:50;3.80;;;3.50;;
982;SDS011;480;48.124;11.578;2022-09-03T06:08:18;4.80;;;3.57;;
982;SDS011;480;48.124;11.578;2022-09-03T06:10:46;3.60;;;3.30;;
982;SDS011;480;48.124;11.578;2022-09-03T06:13:14;3.40;;;3.20;;
982;SDS011;480;48.124;11.578;2022-09-03T06:15:41;3.97;;;3.77;;
982;SDS011;480;48.124;11.578;2022-09-03T06:18:08;4.40;;;3.80;;
982;SDS011;480;48.124;11.578;2022-09-03T06:20:35;7.07;;;4.37;;
982;SDS011;480;48.124;11.578;2022-09-03T06:23:02;3.63;;;3.43;;
982;SDS011;480;48.124;11.578;2022-09-03T06:25:29;3.47;;;3.27;;
982;SDS011;480;48.124;11.578;2022-09-03T06:27:57;5.43;;;3.60;;
982;SDS011;480;48.124;11.578;2022-09-03T06:30:25;4.17;;;3.77;;
982;SDS011;480;48.124;11.578;2022-09-03T06:32:52;3.53;;;3.30;;
982;SDS011;480;48.124;11.578;2022-09-03T06:35:19;3.70;;;3.37;;
982;SDS011;480;48.124;11.578;2022-09-03T06:37:46;4.20;;;3.60;;
982;SDS011;480;48.124;11.578;2022-09-03T06:40:13;5.07;;;2.87;;
982;SDS011;480;48.124;11.578;2022-09-03T06:42:54;4.00;;;3.70;;
982;SDS011;480;48.124;11.578;2022-09-03T06:45:23;5.63;;;3.37;;
982;SDS011;480;48.124;11.578;2022-09-03T06:47:52;3.87;;;3.63;;
982;SDS011;480;48.124;11.578;2022-09-03T06:50:19;3.30;;;3.10;;
982;SDS011;480;48.124;11.578;2022-09-03T06:52:49;4.13;;;3.70;;
982;SDS011;480;48.124;11.578;2022-09-03T06:55:19;4.67;;;3.50;;
982;SDS011;480;48.124;11.578;2022-09-03T06:57:46;4.90;;;4.50;;
982;SDS011;480;48.124;11.578;2022-09-03T07:00:14;3.40;;;3.20;;
982;SDS011;480;48.124;11.578;2022-09-03T07:02:41;3.37;;;3.10;;
982;SDS011;480;48.124;11.578;2022-09-03T07:05:10;4.07;;;3.87;;
982;SDS011;480;48.124;11.578;2022-09-03T07:07:37;3.90;;;3.60;;
982;SDS011;480;48.124;11.578;2022-09-03T07:10:05;3.03;;;2.83;;
982;SDS011;480;48.124;11.578;2022-09-03T07:12:34;4.03;;;3.33;;
982;SDS011;480;48.124;11.578;2022-09-03T07:15:02;3.07;;;2.87;;
982;SDS011;480;48.124;11.578;2022-09-03T07:17:31;8.67;;;4.37;;
982;SDS011;480;48.124;11.578;2022-09-03T07:19:58;3.80;;;3.10;;
982;SDS011;480;48.124;11.578;2022-09-03T07:22:26;6.20;;;4.50;;
982;SDS011;480;48.124;11.578;2022-09-03T07:24:53;2.77;;;2.60;;
982;SDS011;480;48.124;11.578;2022-09-03T07:27:20;3.50;;;3.10;;
982;SDS011;480;48.124;11.578;2022-09-03T07:29:48;4.10;;;3.90;;
982;SDS011;480;48.124;11.578;2022-09-03T07:32:15;4.50;;;3.63;;
982;SDS011;480;48.124;11.578;2022-09-03T07:34:42;3.80;;;3.33;;
982;SDS011;480;48.124;11.578;2022-09-03T07:37:09;3.33;;;3.07;;
982;SDS011;480;48.124;11.578;2022-09-03T07:39:37;3.50;;;3.30;;
982;SDS011;480;48.124;11.578;2022-09-03T07:42:05;4.53;;;3.67;;
982;SDS011;480;48.124;11.578;2022-09-03T07:44:35;3.27;;;2.93;;
982;SDS011;480;48.124;11.578;2022-09-03T07:47:02;3.90;;;3.60;;
982;SDS011;480;48.124;11.578;2022-09-03T07:49:29;5.80;;;4.10;;
982;SDS011;480;48.124;11.578;2022-09-03T07:51:56;4.77;;;3.80;;
982;SDS011;480;48.124;11.578;2022-09-03T07:54:22;3.27;;;3.07;;
982;SDS011;480;48.124;11.578;2022-09-03T07:56:52;4.47;;;4.07;;
982;SDS011;480;48.124;11.578;2022-09-03T07:59:19;4.97;;;4.47;;
982;SDS011;480;48.124;11.578;2022-09-03T08:01:47;3.83;;;3.53;;
982;SDS011;480;48.124;11.578;2022-09-03T08:04:16;4.67;;;4.27;;
982;SDS011;480;48.124;11.578;2022-09-03T08:06:43;3.93;;;3.63;;
982;SDS011;480;48.124;11.578;2022-09-03T08:09:10;3.50;;;3.30;;
982;SDS011;480;48.124;11.578;2022-09-03T08:11:39;3.73;;;3.43;;
982;SDS011;480;48.124;11.578;2022-09-03T08:14:10;4.27;;;3.97;;
982;SDS011;480;48.124;11.578;2022-09-03T08:16:38;3.47;;;3.20;;
982;SDS011;480;48.124;11.578;2022-09-03T08:19:07;4.17;;;3.87;;
982;SDS011;480;48.124;11.578;2022-09-03T08:21:35;4.23;;;3.93;;
982;SDS011;480;48.124;11.578;2022-09-03T08:24:02;7.63;;;4.30;;
982;SDS011;480;48.124;11.578;2022-09-03T08:26:31;4.23;;;4.03;;
982;SDS011;480;48.124;11.578;2022-09-03T08:28:58;4.20;;;3.80;;
982;SDS011;480;48.124;11.578;2022-09-03T08:31:28;3.70;;;3.40;;
982;SDS011;480;48.124;11.578;2022-09-03T08:33:56;4.97;;;4.57;;
982;SDS011;480;48.124;11.578;2022-09-03T08:36:31;4.70;;;4.27;;
982;SDS011;480;48.124;11.578;2022-09-03T08:39:00;4.83;;;4.43;;
982;SDS011;480;48.124;11.578;2022-09-03T08:41:32;4.60;;;4.20;;
982;SDS011;480;48.124;11.578;2022-09-03T08:44:14;8.23;;;4.70;;
982;SDS011;480;48.124;11.578;2022-09-03T08:46:52;4.77;;;4.27;;
982;SDS011;480;48.124;11.578;2022-09-03T08:49:23;4.37;;;4.07;;
982;SDS011;480;48.124;11.578;2022-09-03T08:51:53;5.00;;;4.37;;
982;SDS011;480;48.124;11.578;2022-09-03T08:54:24;5.07;;;4.67;;
982;SDS011;480;48.124;11.578;2022-09-03T08:56:54;5.80;;;5.37;;
982;SDS011;480;48.124;11.578;2022-09-03T08:59:26;4.83;;;4.47;;
982;SDS011;480;48.124;11.578;2022-09-03T09:01:58;5.00;;;4.60;;
982;SDS011;480;48.124;11.578;2022-09-03T09:04:34;4.63;;;4.33;;
982;SDS011;480;48.124;11.578;2022-09-03T09:07:14;13.43;;;4.50;;
982;SDS011;480;48.124;11.578;2022-09-03T09:09:48;5.47;;;5.00;;
982;SDS011;480;48.124;11.578;2022-09-03T09:12:25;5.07;;;4.67;;
982;SDS011;480;48.124;11.578;2022-09-03T09:15:06;4.73;;;4.43;;
982;SDS011;480;48.124;11.578;2022-09-03T09:17:50;4.53;;;4.23;;
982;SDS011;480;48.124;11.578;2022-09-03T09:20:29;5.33;;;4.83;;
982;SDS011;480;48.124;11.578;2022-09-03T09:23:02;4.13;;;3.83;;
982;SDS011;480;48.124;11.578;2022-09-03T09:25:31;3.87;;;3.63;;
982;SDS011;480;48.124;11.578;2022-09-03T09:28:06;3.77;;;3.53;;
982;SDS011;480;48.124;11.578;2022-09-03T09:30:40;3.73;;;3.43;;
982;SDS011;480;48.124;11.578;2022-09-03T09:33:11;4.23;;;3.93;;
982;SDS011;480;48.124;11.578;2022-09-03T09:35:38;4.30;;;3.90;;
982;SDS011;480;48.124;11.578;2022-09-03T09:38:06;4.10;;;3.70;;
982;SDS011;480;48.124;11.578;2022-09-03T09:40:34;3.47;;;3.10;;
982;SDS011;480;48.124;11.578;2022-09-03T09:43:03;3.27;;;3.07;;
982;SDS011;480;48.124;11.578;2022-09-03T09:45:32;3.43;;;3.13;;
982;SDS011;480;48.124;11.578;2022-09-03T09:47:59;4.13;;;2.70;;
982;SDS011;480;48.124;11.578;2022-09-03T09:50:29;2.77;;;2.57;;
982;SDS011;480;48.124;11.578;2022-09-03T09:53:00;4.20;;;2.80;;
982;SDS011;480;48.124;11.578;2022-09-03T09:55:32;2.90;;;2.70;;
982;SDS011;480;48.124;11.578;2022-09-03T09:58:06;6.93;;;2.80;;
982;SDS011;480;48.124;11.578;2022-09-03T10:00:35;3.40;;;2.90;;
982;SDS011;480;48.124;11.578;2022-09-03T10:03:05;2.87;;;2.57;;
982;SDS011;480;48.124;11.578;2022-09-03T10:05:39;2.50;;;2.40;;
982;SDS011;480;48.124;11.578;2022-09-03T10:08:18;2.50;;;2.30;;
982;SDS011;480;48.124;11.578;2022-09-03T10:10:47;2.53;;;2.33;;
982;SDS011;480;48.124;11.578;2022-09-03T10:13:16;2.33;;;2.13;;
982;SDS011;480;48.124;11.578;2022-09-03T10:15:47;2.97;;;2.77;;
982;SDS011;480;48.124;11.578;2022-09-03T10:18:18;2.90;;;2.27;;
982;SDS011;480;48.124;11.578;2022-09-03T10:20:57;2.30;;;2.07;;
982;SDS011;480;48.124;11.578;2022-09-03T10:23:31;2.90;;;2.60;;
982;SDS011;480;48.124;11.578;2022-09-03T10:26:05;1.90;;;1.80;;
982;SDS011;480;48.124;11.578;2022-09-03T10:28:35;2.13;;;1.93;;
982;SDS011;480;48.124;11.578;2022-09-03T10:31:13;4.20;;;2.60;;
982;SDS011;480;48.124;11.578;2022-09-03T10:33:57;3.00;;;1.93;;
982;SDS011;480;48.124;11.578;2022-09-03T10:36:31;2.23;;;2.03;;
982;SDS011;480;48.124;11.578;2022-09-03T10:39:03;2.87;;;2.67;;
982;SDS011;480;48.124;11.578;2022-09-03T10:41:45;2.07;;;1.97;;
982;SDS011;480;48.124;11.578;2022-09-03T10:44:26;2.20;;;2.00;;
982;SDS011;480;48.124;11.578;2022-09-03T10:47:08;3.17;;;2.00;;
982;SDS011;480;48.124;11.578;2022-09-03T10:49:52;2.10;;;1.97;;
982;SDS011;480;48.124;11.578;2022-09-03T10:52:29;2.23;;;2.13;;
982;SDS011;480;48.124;11.578;2022-09-03T10:55:09;3.00;;;2.80;;
982;SDS011;480;48.124;11.578;2022-09-03T10:57:45;3.10;;;2.80;;
982;SDS011;480;48.124;11.578;2022-09-03T11:00:17;2.03;;;1.83;;
982;SDS011;480;48.124;11.578;2022-09-03T11:02:54;3.10;;;1.73;;
982;SDS011;480;48.124;11.578;2022-09-03T11:05:36;1.97;;;1.77;;
982;SDS011;480;48.124;11.578;2022-09-03T11:08:10;2.10;;;2.00;;
982;SDS011;480;48.124;11.578;2022-09-03T11:10:43;2.53;;;2.33;;
982;SDS011;480;48.124;11.578;2022-09-03T11:13:16;2.50;;;2.30;;
982;SDS011;480;48.124;11.578;2022-09-03T11:15:47;2.07;;;1.97;;
982;SDS011;480;48.124;11.578;2022-09-03T11:18:19;1.97;;;1.80;;
982;SDS011;480;48.124;11.578;2022-09-03T11:20:52;1.97;;;1.67;;
982;SDS011;480;48.124;11.578;2022-09-03T11:23:26;2.03;;;1.93;;
982;SDS011;480;48.124;11.578;2022-09-03T11:25:55;2.13;;;1.93;;
982;SDS011;480;48.124;11.578;2022-09-03T11:28:28;2.37;;;2.17;;
982;SDS011;480;48.124;11.578;2022-09-03T11:31:17;1.70;;;1.60;;
982;SDS011;480;48.124;11.578;2022-09-03T11:33:53;1.80;;;1.70;;
982;SDS011;480;48.124;11.578;2022-09-03T11:36:28;1.70;;;1.60;;
982;SDS011;480;48.124;11.578;2022-09-03T11:38:57;1.90;;;1.80;;
982;SDS011;480;48.124;11.578;2022-09-03T11:41:26;1.87;;;1.77;;
982;SDS011;480;48.124;11.578;2022-09-03T11:44:09;2.00;;;1.80;;
982;SDS011;480;48.124;11.578;2022-09-03T11:46:51;2.03;;;1.83;;
982;SDS011;480;48.124;11.578;2022-09-03T11:49:24;3.23;;;1.90;;
982;SDS011;480;48.124;11.578;2022-09-03T11:51:55;1.53;;;1.43;;
982;SDS011;480;48.124;11.578;2022-09-03T11:54:26;1.93;;;1.70;;
982;SDS011;480;48.124;11.578;2022-09-03T11:57:10;1.80;;;1.70;;
982;SDS011;480;48.124;11.578;2022-09-03T11:59:40;1.53;;;1.43;;
982;SDS011;480;48.124;11.578;2022-09-03T12:02:22;2.00;;;1.80;;
982;SDS011;480;48.124;11.578;2022-09-03T12:04:54;1.97;;;1.87;;
982;SDS011;480;48.124;11.578;2022-09-03T12:07:39;1.90;;;1.77;;
982;SDS011;480;48.124;11.578;2022-09-03T12:10:26;1.97;;;1.87;;
982;SDS011;480;48.124;11.578;2022-09-03T12:13:09;2.13;;;2.03;;
982;SDS011;480;48.124;11.578;2022-09-03T12:15:59;2.03;;;1.93;;
982;SDS011;480;48.124;11.578;2022-09-03T12:18:59;1.63;;;1.53;;
982;SDS011;480;48.124;11.578;2022-09-03T12:21:36;1.80;;;1.70;;
982;SDS011;480;48.124;11.578;2022-09-03T12:24:05;1.80;;;1.70;;
982;SDS011;480;48.124;11.578;2022-09-03T12:26:39;1.70;;;1.60;;
982;SDS011;480;48.124;11.578;2022-09-03T12:29:18;2.30;;;2.20;;
982;SDS011;480;48.124;11.578;2022-09-03T12:31:48;2.07;;;1.67;;
982;SDS011;480;48.124;11.578;2022-09-03T12:34:16;2.43;;;1.80;;
982;SDS011;480;48.124;11.578;2022-09-03T12:36:44;1.97;;;1.87;;
982;SDS011;480;48.124;11.578;2022-09-03T12:39:14;1.70;;;1.60;;
982;SDS011;480;48.124;11.578;2022-09-03T12:41:52;1.83;;;1.73;;
982;SDS011;480;48.124;11.578;2022-09-03T12:44:24;1.50;;;1.40;;
982;SDS011;480;48.124;11.578;2022-09-03T12:47:00;1.40;;;1.20;;
982;SDS011;480;48.124;11.578;2022-09-03T12:49:33;1.80;;;1.70;;
982;SDS011;480;48.124;11.578;2022-09-03T12:52:02;1.43;;;1.33;;
982;SDS011;480;48.124;11.578;2022-09-03T12:54:38;1.87;;;1.40;;
982;SDS011;480;48.124;11.578;2022-09-03T12:57:10;2.00;;;1.50;;
982;SDS011;480;48.124;11.578;2022-09-03T12:59:42;1.67;;;1.57;;
982;SDS011;480;48.124;11.578;2022-09-03T13:02:12;2.10;;;2.00;;
982;SDS011;480;48.124;11.578;2022-09-03T13:04:44;1.83;;;1.73;;
982;SDS011;480;48.124;11.578;2022-09-03T13:07:13;1.60;;;1.50;;
982;SDS011;480;48.124;11.578;2022-09-03T13:09:51;2.00;;;1.90;;
982;SDS011;480;48.124;11.578;2022-09-03T13:12:29;1.70;;;1.60;;
982;SDS011;480;48.124;11.578;2022-09-03T13:15:03;1.87;;;1.77;;
982;SDS011;480;48.124;11.578;2022-09-03T13:17:40;1.73;;;1.63;;
982;SDS011;480;48.124;11.578;2022-09-03T13:20:38;2.40;;;1.93;;
982;SDS011;480;48.124;11.578;2022-09-03T13:23:20;2.70;;;2.50;;
982;SDS011;480;48.124;11.578;2022-09-03T13:26:04;2.10;;;2.00;;
982;SDS011;480;48.124;11.578;2022-09-03T13:28:45;1.90;;;1.80;;
982;SDS011;480;48.124;11.578;2022-09-03T13:31:27;2.50;;;2.30;;
982;SDS011;480;48.124;11.578;2022-09-03T13:33:58;2.63;;;2.43;;
982;SDS011;480;48.124;11.578;2022-09-03T13:36:33;2.80;;;2.50;;
982;SDS011;480;48.124;11.578;2022-09-03T13:39:08;2.00;;;1.90;;
982;SDS011;480;48.124;11.578;2022-09-03T13:41:47;1.90;;;1.80;;
982;SDS011;480;48.124;11.578;2022-09-03T13:44:21;1.97;;;1.87;;
982;SDS011;480;48.124;11.578;2022-09-03T13:47:01;2.60;;;1.90;;
982;SDS011;480;48.124;11.578;2022-09-03T13:49:36;2.30;;;2.10;;
982;SDS011;480;48.124;11.578;2022-09-03T13:52:25;1.77;;;1.67;;
982;SDS011;480;48.124;11.578;2022-09-03T13:54:57;3.33;;;2.13;;
982;SDS011;480;48.124;11.578;2022-09-03T13:57:31;2.30;;;2.10;;
982;SDS011;480;48.124;11.578;2022-09-03T14:00:03;3.50;;;2.57;;
982;SDS011;480;48.124;11.578;2022-09-03T14:02:36;2.23;;;2.13;;
982;SDS011;480;48.124;11.578;2022-09-03T14:05:13;2.70;;;2.50;;
982;SDS011;480;48.124;11.578;2022-09-03T14:07:53;2.77;;;2.57;;
982;SDS011;480;48.124;11.578;2022-09-03T14:10:33;2.93;;;2.67;;
982;SDS011;480;48.124;11.578;2022-09-03T14:13:20;2.70;;;2.50;;
982;SDS011;480;48.124;11.578;2022-09-03T14:15:56;3.23;;;2.50;;
982;SDS011;480;48.124;11.578;2022-09-03T14:18:34;2.87;;;2.67;;
982;SDS011;480;48.124;11.578;2022-09-03T14:21:07;2.53;;;2.30;;
982;SDS011;480;48.124;11.578;2022-09-03T14:23:39;1.97;;;1.87;;
982;SDS011;480;48.124;11.578;2022-09-03T14:26:15;2.63;;;2.43;;
982;SDS011;480;48.124;11.578;2022-09-03T14:28:45;3.23;;;2.50;;
982;SDS011;480;48.124;11.578;2022-09-03T14:31:18;2.67;;;2.47;;
982;SDS011;480;48.124;11.578;2022-09-03T14:33:55;4.33;;;2.60;;
982;SDS011;480;48.124;11.578;2022-09-03T14:36:31;6.97;;;2.60;;
982;SDS011;480;48.124;11.578;2022-09-03T14:39:15;3.27;;;2.53;;
982;SDS011;480;48.124;11.578;2022-09-03T14:41:58;3.00;;;2.23;;
982;SDS011;480;48.124;11.578;2022-09-03T14:44:49;1.97;;;1.57;;
982;SDS011;480;48.124;11.578;2022-09-03T14:47:28;6.47;;;2.90;;
982;SDS011;480;48.124;11.578;2022-09-03T14:50:10;2.33;;;1.67;;
982;SDS011;480;48.124;11.578;2022-09-03T14:52:58;2.03;;;1.63;;
982;SDS011;480;48.124;11.578;2022-09-03T14:55:50;2.07;;;1.80;;
982;SDS011;480;48.124;11.578;2022-09-03T14:58:33;1.67;;;1.57;;
982;SDS011;480;48.124;11.578;2022-09-03T15:01:09;2.13;;;1.97;;
982;SDS011;480;48.124;11.578;2022-09-03T15:03:47;5.30;;;1.80;;
982;SDS011;480;48.124;11.578;2022-09-03T15:06:27;4.53;;;1.80;;
982;SDS011;480;48.124;11.578;2022-09-03T15:09:10;2.73;;;1.40;;
982;SDS011;480;48.124;11.578;2022-09-03T15:11:48;6.80;;;2.13;;
982;SDS011;480;48.124;11.578;2022-09-03T15:14:21;1.77;;;1.33;;
982;SDS011;480;48.124;11.578;2022-09-03T15:16:55;3.07;;;2.17;;
982;SDS011;480;48.124;11.578;2022-09-03T15:19:34;1.97;;;1.17;;
982;SDS011;480;48.124;11.578;2022-09-03T15:22:12;1.20;;;1.10;;
982;SDS011;480;48.124;11.578;2022-09-03T15:24:47;2.33;;;1.60;;
982;SDS011;480;48.124;11.578;2022-09-03T15:27:25;1.73;;;1.53;;
982;SDS011;480;48.124;11.578;2022-09-03T15:30:05;2.20;;;1.90;;
982;SDS011;480;48.124;11.578;2022-09-03T15:32:41;1.50;;;1.40;;
982;SDS011;480;48.124;11.578;2022-09-03T15:35:17;2.40;;;2.20;;
982;SDS011;480;48.124;11.578;2022-09-03T15:38:00;2.63;;;2.23;;
982;SDS011;480;48.124;11.578;2022-09-03T15:40:31;3.20;;;2.13;;
982;SDS011;480;48.124;11.578;2022-09-03T15:43:03;2.97;;;2.00;;
982;SDS011;480;48.124;11.578;2022-09-03T15:45:37;4.63;;;2.37;;
982;SDS011;480;48.124;11.578;2022-09-03T15:48:18;2.10;;;1.73;;
982;SDS011;480;48.124;11.578;2022-09-03T15:50:53;1.30;;;1.20;;
982;SDS011;480;48.124;11.578;2022-09-03T15:53:32;1.47;;;1.37;;
982;SDS011;480;48.124;11.578;2022-09-03T15:56:05;2.90;;;1.90;;
982;SDS011;480;48.124;11.578;2022-09-03T15:58:40;2.37;;;2.20;;
982;SDS011;480;48.124;11.578;2022-09-03T16:01:12;2.60;;;1.90;;
982;SDS011;480;48.124;11.578;2022-09-03T16:03:54;1.70;;;1.40;;